Time;durP1;ratioP1;P1;durP2;ratioP2;P2;SDS_P1;SDS_P2;PMS_P1;PMS_P2;Temp;Humidity;BMP_temperature;BMP_pressure;BME280_temperature;BME280_humidity;BME280_pressure;Samples;Min_cycle;Max_cycle;Signal;HPM_P1;HPM_P2
2022/12/30 00:00:27;;;;;;;1.10;0.45;;;6.40;91.00;;;;;;5099830;28;20043;-74
2022/12/30 00:02:52;;;;;;;4.22;0.68;;;6.50;91.00;;;;;;5116399;28;20039;-74
2022/12/30 00:05:18;;;;;;;2.20;0.60;;;6.40;91.00;;;;;;5099363;28;20031;-74
2022/12/30 00:07:43;;;;;;;0.90;0.50;;;6.50;91.00;;;;;;5116591;28;20470;-74
2022/12/30 00:10:09;;;;;;;1.80;0.63;;;6.50;91.00;;;;;;5134769;28;20058;-75
2022/12/30 00:34:21;;;;;;;0.63;0.50;;;6.30;91.00;;;;;;5102932;28;20126;-74
2022/12/30 00:36:48;;;;;;;0.90;0.43;;;6.40;91.10;;;;;;5099047;28;20547;-74
2022/12/30 00:39:14;;;;;;;1.70;0.77;;;6.30;91.00;;;;;;5116032;28;20510;-74
2022/12/30 00:44:16;;;;;;;0.60;0.50;;;6.30;91.00;;;;;;5134327;28;20035;-74
2022/12/30 00:46:43;;;;;;;1.08;0.45;;;6.30;91.00;;;;;;5099004;28;20050;-73
2022/12/30 00:57:09;;;;;;;1.23;0.47;;;6.30;91.10;;;;;;5103979;28;20090;-74
2022/12/30 00:59:35;;;;;;;0.95;0.40;;;6.20;91.10;;;;;;5081883;28;20031;-73
2022/12/30 01:02:01;;;;;;;0.52;0.30;;;6.20;91.10;;;;;;5115689;28;20047;-73
2022/12/30 01:04:26;;;;;;;0.80;0.50;;;6.20;91.10;;;;;;5080548;28;20064;-73
2022/12/30 01:06:52;;;;;;;0.60;0.50;;;6.10;91.10;;;;;;5115746;28;20031;-74
2022/12/30 01:09:18;;;;;;;1.38;0.60;;;6.10;91.10;;;;;;5115295;28;20055;-74
2022/12/30 01:11:44;;;;;;;2.15;0.52;;;6.10;91.20;;;;;;5115096;28;20149;-74
2022/12/30 01:14:10;;;;;;;1.17;0.40;;;6.10;91.10;;;;;;5098273;28;20043;-72
2022/12/30 01:16:35;;;;;;;0.98;0.50;;;6.20;91.20;;;;;;5081319;28;20543;-74
2022/12/30 01:19:01;;;;;;;1.58;0.52;;;6.10;91.20;;;;;;5115402;28;20039;-74
2022/12/30 01:21:27;;;;;;;1.05;0.50;;;6.10;91.20;;;;;;5133671;28;20138;-73
2022/12/30 01:23:53;;;;;;;0.60;0.40;;;6.00;91.20;;;;;;5098646;28;20072;-73
2022/12/30 01:26:18;;;;;;;0.93;0.45;;;6.00;91.20;;;;;;5115405;28;20146;-73
2022/12/30 01:28:44;;;;;;;0.60;0.50;;;6.00;91.20;;;;;;5098463;28;20071;-73
2022/12/30 01:31:11;;;;;;;1.95;0.60;;;6.00;91.20;;;;;;5081266;28;20043;-73
2022/12/30 01:33:37;;;;;;;1.25;0.47;;;6.00;91.20;;;;;;5114910;28;20047;-74
2022/12/30 01:36:04;;;;;;;1.60;0.40;;;6.00;91.20;;;;;;5080966;28;20464;-74
2022/12/30 01:38:32;;;;;;;3.40;0.60;;;6.00;91.20;;;;;;5114860;28;20061;-73
2022/12/30 01:40:58;;;;;;;2.47;0.63;;;5.90;91.10;;;;;;5097924;28;20535;-73
2022/12/30 01:43:41;;;;;;;1.52;0.43;;;6.00;91.20;;;;;;5114848;28;20470;-74
2022/12/30 01:46:07;;;;;;;1.02;0.30;;;6.00;91.20;;;;;;5097959;28;20450;-73
2022/12/30 01:48:34;;;;;;;1.13;0.52;;;5.90;91.20;;;;;;5133113;28;20112;-73
2022/12/30 01:51:06;;;;;;;1.20;0.55;;;5.90;91.20;;;;;;5114939;28;20063;-73
2022/12/30 01:53:35;;;;;;;0.98;0.47;;;5.90;91.30;;;;;;5133185;28;20035;-73
2022/12/30 01:56:12;;;;;;;1.60;0.50;;;5.90;91.30;;;;;;5132941;28;20398;-73
2022/12/30 01:58:57;;;;;;;1.63;0.50;;;5.90;91.30;;;;;;5132852;28;20095;-73
2022/12/30 02:01:23;;;;;;;0.40;0.40;;;5.80;91.30;;;;;;5133052;28;20076;-73
2022/12/30 02:03:56;;;;;;;0.85;0.55;;;5.80;91.30;;;;;;5132941;28;20130;-73
2022/12/30 02:06:27;;;;;;;1.27;0.60;;;5.80;91.40;;;;;;5114502;28;20474;-73
2022/12/30 02:08:53;;;;;;;1.13;0.30;;;5.80;91.40;;;;;;5133062;28;20043;-73
2022/12/30 02:11:19;;;;;;;1.05;0.40;;;5.80;91.40;;;;;;5132894;28;20280;-73
2022/12/30 02:13:45;;;;;;;1.30;0.22;;;5.80;91.40;;;;;;5132861;28;20065;-73
2022/12/30 02:16:26;;;;;;;2.65;0.52;;;5.80;91.40;;;;;;5135282;27;20050;-73
2022/12/30 02:18:59;;;;;;;;;;;5.80;91.40;;;;;;5136804;28;20081;-73
2022/12/30 02:21:48;;;;;;;0.95;0.50;;;5.70;91.40;;;;;;5136298;28;19920;-73
2022/12/30 02:24:36;;;;;;;0.80;0.47;;;5.70;91.30;;;;;;5136081;28;20066;-73
2022/12/30 02:27:32;;;;;;;1.40;0.30;;;5.80;91.30;;;;;;5136224;28;20080;-73
2022/12/30 02:30:12;;;;;;;0.47;0.30;;;5.70;91.30;;;;;;5136027;28;20062;-74
2022/12/30 02:33:04;;;;;;;0.57;0.40;;;5.70;91.30;;;;;;5136402;28;20067;-73
2022/12/30 02:35:50;;;;;;;1.08;0.45;;;5.70;91.30;;;;;;5117452;28;20513;-73
2022/12/30 02:38:39;;;;;;;1.20;0.50;;;5.70;91.30;;;;;;5135841;28;20031;-74
2022/12/30 02:46:56;;;;;;;1.23;0.43;;;5.70;91.30;;;;;;5120852;28;20031;-73
2022/12/30 02:49:24;;;;;;;1.30;0.50;;;5.70;91.30;;;;;;5135902;28;20457;-73
2022/12/30 02:54:31;;;;;;;1.55;0.60;;;5.70;91.30;;;;;;5135686;28;20039;-73
2022/12/30 02:56:56;;;;;;;1.88;0.63;;;5.60;91.20;;;;;;5135564;28;20402;-74
2022/12/30 03:05:37;;;;;;;1.42;0.70;;;5.80;91.20;;;;;;5135538;28;20051;-73
2022/12/30 03:08:23;;;;;;;3.25;1.00;;;5.80;91.20;;;;;;5121367;28;20067;-73
2022/12/30 03:11:23;;;;;;;1.77;0.60;;;5.90;91.20;;;;;;5135278;28;20035;-73
2022/12/30 03:14:05;;;;;;;3.03;1.05;;;5.90;91.20;;;;;;5135197;28;20043;-73
2022/12/30 03:16:39;;;;;;;2.20;0.80;;;5.90;91.10;;;;;;5117429;28;20043;-73
2022/12/30 03:19:09;;;;;;;2.75;0.73;;;6.00;91.10;;;;;;5135554;28;20343;-73
2022/12/30 03:21:40;;;;;;;2.72;1.23;;;6.00;91.00;;;;;;5135240;28;20038;-73
2022/12/30 03:27:03;;;;;;;1.27;0.52;;;5.90;91.00;;;;;;5134231;27;20133;-73
2022/12/30 03:29:32;;;;;;;1.00;0.65;;;5.90;91.10;;;;;;5135686;28;20482;-73
2022/12/30 03:31:58;;;;;;;1.63;0.50;;;5.90;91.20;;;;;;5135049;28;20054;-73
2022/12/30 03:34:25;;;;;;;2.20;0.52;;;5.90;91.20;;;;;;5135637;28;20046;-73
2022/12/30 03:36:57;;;;;;;1.77;0.70;;;5.90;91.20;;;;;;5116554;28;20035;-74
2022/12/30 03:39:35;;;;;;;2.08;0.70;;;5.90;91.20;;;;;;5134904;28;20078;-73
2022/12/30 03:42:03;;;;;;;3.47;0.68;;;5.90;91.20;;;;;;5134584;28;20092;-73
2022/12/30 03:44:31;;;;;;;2.33;0.70;;;5.90;91.30;;;;;;5116485;28;20038;-73
2022/12/30 03:46:56;;;;;;;2.90;0.57;;;5.90;91.20;;;;;;5117385;28;20054;-73
2022/12/30 03:49:22;;;;;;;1.23;0.60;;;5.90;91.20;;;;;;5134879;28;20035;-73
2022/12/30 03:51:48;;;;;;;1.95;0.65;;;5.90;91.20;;;;;;5116686;28;20121;-73
2022/12/30 03:54:14;;;;;;;2.65;0.75;;;5.80;91.20;;;;;;5134641;28;20043;-73
2022/12/30 03:56:40;;;;;;;1.90;0.50;;;5.80;91.20;;;;;;5134636;28;20481;-73
2022/12/30 03:59:06;;;;;;;2.20;0.50;;;5.80;91.20;;;;;;5116470;28;20039;-73
2022/12/30 04:01:31;;;;;;;2.38;0.80;;;5.80;91.30;;;;;;5135290;28;20035;-73
2022/12/30 04:03:57;;;;;;;1.45;0.47;;;5.70;91.30;;;;;;5116590;28;20443;-73
2022/12/30 04:06:23;;;;;;;1.30;0.40;;;5.70;91.40;;;;;;5116265;28;20047;-73
2022/12/30 04:08:49;;;;;;;2.20;0.50;;;5.70;91.40;;;;;;5134731;28;20066;-73
2022/12/30 04:11:14;;;;;;;1.30;0.45;;;5.70;91.40;;;;;;5116523;28;20468;-73
2022/12/30 04:13:40;;;;;;;1.00;0.50;;;5.60;91.40;;;;;;5134685;28;20035;-73
2022/12/30 04:16:06;;;;;;;2.10;0.75;;;5.60;91.40;;;;;;5134922;28;20395;-73
2022/12/30 04:18:32;;;;;;;2.38;0.50;;;5.50;91.40;;;;;;5134368;28;20424;-73
2022/12/30 04:20:58;;;;;;;0.80;0.47;;;5.50;91.50;;;;;;5134347;28;20600;-73
2022/12/30 04:23:24;;;;;;;1.10;0.52;;;5.40;91.50;;;;;;5134187;28;20159;-73
2022/12/30 04:25:49;;;;;;;1.95;0.40;;;5.40;91.60;;;;;;5098775;28;20126;-73
2022/12/30 04:28:15;;;;;;;0.85;0.45;;;5.40;91.60;;;;;;5134241;28;20035;-73
2022/12/30 04:30:41;;;;;;;2.08;0.43;;;5.40;91.70;;;;;;5134437;28;20042;-72
2022/12/30 04:33:06;;;;;;;2.88;0.47;;;5.30;91.70;;;;;;5134115;28;20516;-73
2022/12/30 04:35:32;;;;;;;0.68;0.40;;;5.30;91.60;;;;;;5134046;28;20061;-73
2022/12/30 04:37:58;;;;;;;1.23;0.50;;;5.30;91.70;;;;;;5115676;28;20077;-73
2022/12/30 04:40:24;;;;;;;1.10;0.40;;;5.20;91.70;;;;;;5133881;28;20037;-73
2022/12/30 04:42:49;;;;;;;1.27;0.40;;;5.20;91.70;;;;;;5133870;28;20047;-73
2022/12/30 04:45:15;;;;;;;0.80;0.50;;;5.20;91.70;;;;;;5098705;28;20035;-73
2022/12/30 04:47:40;;;;;;;1.75;0.60;;;5.20;91.70;;;;;;5115720;28;20032;-73
2022/12/30 04:50:07;;;;;;;0.68;0.38;;;5.20;91.70;;;;;;5115585;28;20139;-73
2022/12/30 04:52:33;;;;;;;2.03;0.52;;;5.20;91.70;;;;;;5116139;28;20051;-72
2022/12/30 04:54:59;;;;;;;1.33;0.50;;;5.20;91.70;;;;;;5115917;28;20399;-73
2022/12/30 04:57:25;;;;;;;1.42;0.50;;;5.20;91.70;;;;;;5115308;28;20063;-73
2022/12/30 04:59:50;;;;;;;0.60;0.40;;;5.20;91.70;;;;;;5133721;28;20066;-73
2022/12/30 05:02:16;;;;;;;2.15;0.70;;;5.20;91.70;;;;;;5115457;28;20043;-73
2022/12/30 05:04:42;;;;;;;1.80;0.50;;;5.10;91.60;;;;;;5098674;28;20444;-73
2022/12/30 05:07:07;;;;;;;1.60;0.55;;;5.20;91.60;;;;;;5134406;28;20085;-73
2022/12/30 05:09:33;;;;;;;1.77;0.70;;;5.20;91.70;;;;;;5115312;28;20066;-73
2022/12/30 05:11:59;;;;;;;1.20;0.57;;;5.20;91.60;;;;;;5134053;28;20448;-73
2022/12/30 05:14:24;;;;;;;1.52;0.70;;;5.20;91.60;;;;;;5115484;28;20490;-73
2022/12/30 05:16:50;;;;;;;3.95;0.57;;;5.20;91.50;;;;;;5115825;28;20046;-73
2022/12/30 05:19:16;;;;;;;1.08;0.57;;;5.20;91.60;;;;;;5115281;28;20122;-73
2022/12/30 05:21:41;;;;;;;1.55;0.60;;;5.30;91.60;;;;;;5098058;28;20027;-73
2022/12/30 05:26:49;;;;;;;1.88;0.70;;;5.20;91.60;;;;;;5117350;28;20035;-73
2022/12/30 05:29:14;;;;;;;0.50;0.40;;;5.30;91.60;;;;;;5115048;28;20058;-73
2022/12/30 05:31:40;;;;;;;1.55;0.40;;;5.20;91.60;;;;;;5115612;28;20035;-73
2022/12/30 05:34:06;;;;;;;1.50;0.68;;;5.30;91.60;;;;;;5133477;28;20430;-72
2022/12/30 05:36:32;;;;;;;1.08;0.50;;;5.20;91.60;;;;;;5115341;28;20069;-73
2022/12/30 05:38:57;;;;;;;2.28;0.60;;;5.10;91.60;;;;;;5133577;28;20047;-73
2022/12/30 05:41:23;;;;;;;1.77;0.50;;;5.10;91.60;;;;;;5133582;28;20042;-73
2022/12/30 05:43:49;;;;;;;2.70;0.77;;;5.20;91.70;;;;;;5133736;28;20047;-73
2022/12/30 05:46:16;;;;;;;1.45;0.60;;;5.10;91.60;;;;;;5133850;28;20051;-73
2022/12/30 05:48:41;;;;;;;0.82;0.50;;;5.10;91.60;;;;;;5133706;28;20050;-73
2022/12/30 05:51:07;;;;;;;3.67;1.17;;;5.10;91.70;;;;;;5132755;27;20035;-73
2022/12/30 05:53:33;;;;;;;1.55;0.80;;;5.10;91.70;;;;;;5097833;28;20047;-73
2022/12/30 05:55:58;;;;;;;2.13;0.85;;;5.20;91.70;;;;;;5133430;28;20402;-74
2022/12/30 05:58:25;;;;;;;3.22;0.88;;;5.10;91.70;;;;;;5133270;28;20375;-73
2022/12/30 06:00:50;;;;;;;3.22;1.00;;;5.20;91.60;;;;;;5133073;28;20039;-73
2022/12/30 06:03:16;;;;;;;1.83;1.02;;;5.20;91.60;;;;;;5133073;28;20104;-73
2022/12/30 06:05:42;;;;;;;1.30;0.52;;;5.20;91.60;;;;;;5114673;28;20043;-73
2022/12/30 06:08:09;;;;;;;1.02;0.70;;;5.30;91.60;;;;;;5132915;28;20031;-73
2022/12/30 06:10:35;;;;;;;2.50;0.80;;;5.30;91.60;;;;;;5133417;28;20444;-73
2022/12/30 06:13:01;;;;;;;3.15;0.77;;;5.30;91.60;;;;;;5114374;28;20477;-73
2022/12/30 06:15:26;;;;;;;1.20;0.57;;;5.30;91.50;;;;;;5097339;28;20126;-73
2022/12/30 06:17:52;;;;;;;3.85;1.20;;;5.30;91.50;;;;;;5132820;28;20080;-72
2022/12/30 06:20:18;;;;;;;1.63;0.80;;;5.20;91.50;;;;;;5133321;28;20047;-74
2022/12/30 06:22:43;;;;;;;3.58;0.70;;;5.30;91.60;;;;;;5133329;28;20077;-73
2022/12/30 06:25:09;;;;;;;2.15;0.80;;;5.30;91.60;;;;;;5133006;28;20402;-73
2022/12/30 06:27:35;;;;;;;3.47;0.73;;;5.20;91.60;;;;;;5133147;28;20039;-73
2022/12/30 06:30:01;;;;;;;2.63;0.65;;;5.20;91.60;;;;;;5133036;28;20042;-73
2022/12/30 06:32:27;;;;;;;1.77;0.77;;;5.30;91.60;;;;;;5132708;28;20546;-73
2022/12/30 06:34:52;;;;;;;1.92;0.88;;;5.30;91.60;;;;;;5132698;28;20050;-73
2022/12/30 06:37:18;;;;;;;1.45;0.60;;;5.30;91.60;;;;;;5132979;28;20043;-73
2022/12/30 06:39:43;;;;;;;2.67;0.88;;;5.30;91.60;;;;;;5132664;28;20080;-73
2022/12/30 06:42:09;;;;;;;2.20;0.63;;;5.30;91.60;;;;;;5114178;28;20561;-73
2022/12/30 06:44:35;;;;;;;1.27;0.50;;;5.30;91.60;;;;;;5114347;28;20080;-73
2022/12/30 06:47:00;;;;;;;2.95;0.60;;;5.20;91.60;;;;;;5132580;28;20551;-73
2022/12/30 06:49:27;;;;;;;2.47;0.68;;;5.20;91.60;;;;;;5132724;28;20058;-73
2022/12/30 06:51:52;;;;;;;1.15;0.47;;;5.20;91.70;;;;;;5132962;28;20043;-74
2022/12/30 06:54:18;;;;;;;1.85;0.73;;;5.20;91.70;;;;;;5132922;28;20043;-73
2022/12/30 06:56:43;;;;;;;1.70;0.60;;;5.20;91.70;;;;;;5132924;28;20375;-74
2022/12/30 06:59:09;;;;;;;1.38;0.55;;;5.10;91.70;;;;;;5132837;28;20118;-74
2022/12/30 07:01:35;;;;;;;1.50;0.50;;;5.10;91.80;;;;;;5114112;28;20043;-73
2022/12/30 07:04:00;;;;;;;0.98;0.47;;;5.10;91.80;;;;;;5117591;28;20031;-73
2022/12/30 07:06:26;;;;;;;1.13;0.50;;;5.10;92.10;;;;;;5136503;28;20043;-73
2022/12/30 07:08:52;;;;;;;1.05;0.50;;;5.10;91.80;;;;;;5135791;28;20146;-73
2022/12/30 07:11:17;;;;;;;0.80;0.50;;;5.10;91.80;;;;;;5135869;28;20043;-73
2022/12/30 07:13:43;;;;;;;4.95;0.60;;;5.10;91.80;;;;;;5135715;28;20035;-73
2022/12/30 07:16:08;;;;;;;0.95;0.50;;;5.10;91.80;;;;;;5135845;28;20538;-73
2022/12/30 07:18:34;;;;;;;1.52;0.50;;;5.10;91.80;;;;;;5135701;28;20035;-73
2022/12/30 07:21:00;;;;;;;1.98;0.60;;;5.10;91.80;;;;;;5117389;28;20399;-73
2022/12/30 07:23:25;;;;;;;2.47;0.88;;;5.10;91.80;;;;;;5135718;28;20088;-73
2022/12/30 07:25:51;;;;;;;2.55;0.75;;;5.10;91.80;;;;;;5083143;28;20046;-73
2022/12/30 07:28:17;;;;;;;1.70;0.60;;;5.10;91.80;;;;;;5135732;28;20047;-73
2022/12/30 07:30:42;;;;;;;2.10;0.60;;;5.10;91.90;;;;;;5099885;28;20035;-73
2022/12/30 07:33:09;;;;;;;1.00;0.45;;;5.20;91.90;;;;;;5117162;28;20472;-73
2022/12/30 07:35:34;;;;;;;0.57;0.40;;;5.20;92.20;;;;;;5100406;28;20082;-74
2022/12/30 07:38:00;;;;;;;0.82;0.60;;;5.20;91.90;;;;;;5116814;28;20071;-74
2022/12/30 07:40:25;;;;;;;3.58;0.80;;;5.20;91.80;;;;;;5135310;28;20122;-74
2022/12/30 07:42:51;;;;;;;5.32;0.85;;;5.30;91.80;;;;;;5116718;28;20039;-74
2022/12/30 07:45:17;;;;;;;1.33;0.65;;;5.30;91.70;;;;;;5135272;28;20035;-73
2022/12/30 07:47:43;;;;;;;1.27;0.80;;;5.40;91.70;;;;;;5116722;28;20043;-73
2022/12/30 07:50:10;;;;;;;1.20;0.68;;;5.40;91.70;;;;;;5135209;28;20039;-73
2022/12/30 07:52:36;;;;;;;3.33;0.98;;;5.40;91.60;;;;;;5117363;28;20047;-73
2022/12/30 07:55:02;;;;;;;2.92;0.80;;;5.40;91.60;;;;;;5134897;28;20387;-74
2022/12/30 07:57:28;;;;;;;2.78;0.90;;;5.50;91.70;;;;;;5134849;28;20058;-73
2022/12/30 07:59:54;;;;;;;1.73;0.73;;;5.50;91.60;;;;;;5134782;28;20039;-74
2022/12/30 08:02:20;;;;;;;2.05;0.60;;;5.50;91.70;;;;;;5135185;28;20157;-73
2022/12/30 08:04:46;;;;;;;1.35;0.60;;;5.50;91.60;;;;;;5117226;28;20398;-73
2022/12/30 08:07:12;;;;;;;1.33;0.70;;;5.60;91.60;;;;;;5135384;28;20104;-73
2022/12/30 08:09:37;;;;;;;1.25;0.60;;;5.50;91.70;;;;;;5116828;28;20459;-73
2022/12/30 08:12:03;;;;;;;1.65;0.60;;;5.60;91.70;;;;;;5134800;28;20379;-73
2022/12/30 08:14:29;;;;;;;2.28;0.77;;;5.60;91.70;;;;;;5134489;27;20065;-74
2022/12/30 08:16:54;;;;;;;1.75;0.70;;;5.60;91.70;;;;;;5134695;28;20043;-74
2022/12/30 08:19:20;;;;;;;2.47;0.80;;;5.70;91.60;;;;;;5134612;28;20057;-73
2022/12/30 08:21:45;;;;;;;3.30;0.60;;;5.70;91.60;;;;;;5116172;28;20130;-74
2022/12/30 08:24:11;;;;;;;1.20;0.60;;;5.70;91.60;;;;;;5116135;28;20031;-73
2022/12/30 08:26:37;;;;;;;0.93;0.40;;;5.80;91.60;;;;;;5134678;28;20067;-73
2022/12/30 08:29:02;;;;;;;0.90;0.50;;;5.80;91.60;;;;;;5116134;28;20031;-73
2022/12/30 08:31:28;;;;;;;1.45;0.68;;;5.80;91.50;;;;;;5134462;28;20042;-73
2022/12/30 08:33:55;;;;;;;1.17;0.65;;;5.90;91.60;;;;;;5116730;28;20467;-73
2022/12/30 08:36:24;;;;;;;1.02;0.65;;;5.90;91.50;;;;;;5134855;28;20046;-73
2022/12/30 08:38:53;;;;;;;0.80;0.50;;;6.00;91.60;;;;;;5115966;28;20424;-73
2022/12/30 08:41:23;;;;;;;1.67;0.60;;;6.00;91.50;;;;;;5115988;28;20116;-73
2022/12/30 08:43:50;;;;;;;2.70;0.60;;;6.00;91.50;;;;;;5116017;28;20057;-73
2022/12/30 08:46:16;;;;;;;4.05;0.80;;;6.10;91.40;;;;;;5115988;28;20066;-73
2022/12/30 08:48:43;;;;;;;2.85;0.80;;;6.20;91.40;;;;;;5098896;28;20135;-73
2022/12/30 08:51:09;;;;;;;1.58;0.80;;;6.20;91.40;;;;;;5134431;28;20432;-73
2022/12/30 08:53:35;;;;;;;2.20;0.60;;;6.20;91.40;;;;;;5116090;28;20042;-73
2022/12/30 08:56:07;;;;;;;3.80;0.70;;;6.30;91.40;;;;;;5133820;28;20067;-74
2022/12/30 08:58:34;;;;;;;1.23;0.70;;;6.30;91.30;;;;;;5133937;28;20034;-73
2022/12/30 09:01:07;;;;;;;1.40;0.63;;;6.30;91.30;;;;;;5133859;28;20050;-73
2022/12/30 09:03:33;;;;;;;2.55;0.60;;;6.40;91.30;;;;;;5134331;28;20035;-73
2022/12/30 09:05:59;;;;;;;1.42;0.73;;;6.40;91.30;;;;;;5133911;28;20108;-73
2022/12/30 09:08:44;;;;;;;2.55;0.80;;;6.50;91.30;;;;;;5115973;28;20130;-73
2022/12/30 09:11:14;;;;;;;3.08;0.90;;;6.50;91.20;;;;;;5098456;28;20134;-73
2022/12/30 09:13:40;;;;;;;1.05;0.60;;;6.60;91.20;;;;;;5115792;28;20105;-73
2022/12/30 09:16:09;;;;;;;1.35;0.50;;;6.60;91.20;;;;;;5115525;28;20422;-73
2022/12/30 09:18:35;;;;;;;0.95;0.57;;;6.60;91.20;;;;;;5082012;28;20383;-73
2022/12/30 09:21:02;;;;;;;1.52;0.70;;;6.70;91.20;;;;;;5098259;28;20035;-72
2022/12/30 09:23:28;;;;;;;0.80;0.47;;;6.70;91.20;;;;;;5115304;28;20047;-73
2022/12/30 09:25:54;;;;;;;0.75;0.50;;;6.80;91.20;;;;;;5080735;28;20104;-73
2022/12/30 09:28:19;;;;;;;1.48;0.52;;;6.80;91.20;;;;;;5115282;28;20051;-74
2022/12/30 09:30:45;;;;;;;1.05;0.50;;;6.80;91.10;;;;;;5081362;28;20104;-73
2022/12/30 09:33:11;;;;;;;1.25;0.50;;;6.90;91.10;;;;;;5115057;28;20043;-73
2022/12/30 09:35:37;;;;;;;1.08;0.60;;;7.00;91.10;;;;;;5081029;28;20485;-73
2022/12/30 09:38:02;;;;;;;1.17;0.50;;;7.00;91.10;;;;;;5115155;28;20053;-73
2022/12/30 09:41:03;;;;;;;1.13;0.50;;;7.00;91.10;;;;;;5114901;28;20035;-73
2022/12/30 09:43:57;;;;;;;0.40;0.40;;;7.00;91.10;;;;;;5120360;28;20123;-73
2022/12/30 09:46:40;;;;;;;0.70;0.32;;;7.00;91.10;;;;;;5102390;28;20118;-73
2022/12/30 09:49:28;;;;;;;0.50;0.50;;;7.00;91.10;;;;;;5133662;28;20239;-73
2022/12/30 09:52:02;;;;;;;1.20;0.50;;;7.00;91.10;;;;;;5081728;28;20047;-73
2022/12/30 09:54:29;;;;;;;1.55;0.52;;;7.10;91.10;;;;;;5098721;28;20134;-74
2022/12/30 09:57:30;;;;;;;1.65;0.50;;;7.00;91.10;;;;;;5115557;28;20047;-73
2022/12/30 09:59:51;;;;;;;0.80;0.40;;;7.10;91.10;;;;;;5103800;28;20054;-72
2022/12/30 10:02:46;;;;;;;1.17;0.40;;;7.10;91.10;;;;;;5114891;28;20060;-73
2022/12/30 10:05:12;;;;;;;0.60;0.30;;;7.20;91.10;;;;;;5114893;28;20035;-73
2022/12/30 10:07:57;;;;;;;0.60;0.32;;;7.10;91.00;;;;;;5097947;28;20124;-73
2022/12/30 10:10:53;;;;;;;1.05;0.50;;;7.20;91.10;;;;;;5097745;28;20039;-73
2022/12/30 10:13:35;;;;;;;0.47;0.30;;;7.20;91.10;;;;;;5114501;28;20137;-72
2022/12/30 10:16:09;;;;;;;0.70;0.40;;;7.30;91.10;;;;;;5099415;28;20432;-72
2022/12/30 10:19:02;;;;;;;0.50;0.40;;;7.30;91.00;;;;;;5115695;28;20043;-72
2022/12/30 10:21:41;;;;;;;0.35;0.30;;;7.30;91.00;;;;;;5114714;28;20043;-73
2022/12/30 10:24:29;;;;;;;0.90;0.32;;;7.30;91.00;;;;;;5114208;28;20118;-74
2022/12/30 10:26:57;;;;;;;1.67;0.20;;;7.50;91.00;;;;;;5132840;28;20513;-73
2022/12/30 10:29:30;;;;;;;0.40;0.30;;;7.40;91.00;;;;;;5132658;28;20044;-73
2022/12/30 10:32:02;;;;;;;0.70;0.40;;;7.50;91.00;;;;;;5132834;28;20041;-73
2022/12/30 10:34:30;;;;;;;0.60;0.35;;;7.60;91.00;;;;;;5098493;28;20054;-72
2022/12/30 10:37:03;;;;;;;0.25;0.20;;;7.50;91.00;;;;;;5116464;28;20047;-73
2022/12/30 10:39:33;;;;;;;1.02;0.30;;;7.50;90.90;;;;;;5117925;28;20076;-73
2022/12/30 10:42:29;;;;;;;0.20;0.20;;;7.60;91.00;;;;;;5100895;28;20043;-72
2022/12/30 10:45:21;;;;;;;0.20;0.20;;;7.60;91.00;;;;;;5121341;28;20039;-72
2022/12/30 10:48:15;;;;;;;0.20;0.20;;;7.60;91.00;;;;;;5135988;28;20043;-72
2022/12/30 10:50:45;;;;;;;0.47;0.20;;;7.70;91.00;;;;;;5120666;28;20074;-71
2022/12/30 10:53:15;;;;;;;0.30;0.30;;;7.70;91.00;;;;;;5100964;28;20043;-72
2022/12/30 10:55:47;;;;;;;0.20;0.20;;;7.70;91.00;;;;;;5117396;28;20043;-72
2022/12/30 10:58:22;;;;;;;0.30;0.30;;;7.70;91.00;;;;;;5136045;28;20068;-71
2022/12/30 11:00:48;;;;;;;0.30;0.20;;;7.70;91.00;;;;;;5136149;28;20501;-72
2022/12/30 11:03:36;;;;;;;1.40;0.40;;;7.70;91.00;;;;;;5135996;28;20063;-71
2022/12/30 11:06:20;;;;;;;1.10;0.35;;;7.70;91.00;;;;;;5136066;28;20088;-72
2022/12/30 11:08:46;;;;;;;0.40;0.30;;;7.70;91.00;;;;;;5117481;28;20039;-73
2022/12/30 11:11:12;;;;;;;1.38;0.50;;;7.70;90.90;;;;;;5100435;28;20054;-71
2022/12/30 11:16:25;;;;;;;0.38;0.30;;;7.80;91.00;;;;;;5135608;28;20047;-71
2022/12/30 11:18:51;;;;;;;0.10;0.10;;;7.80;90.90;;;;;;5135801;28;20073;-71
2022/12/30 11:21:27;;;;;;;0.20;0.20;;;7.80;90.90;;;;;;5083779;28;20490;-72
2022/12/30 11:23:56;;;;;;;0.88;0.40;;;7.80;90.90;;;;;;5135814;28;20035;-72
2022/12/30 11:26:24;;;;;;;0.47;0.40;;;7.90;90.90;;;;;;5135481;28;20051;-72
2022/12/30 11:28:56;;;;;;;0.60;0.40;;;7.90;90.90;;;;;;5100165;28;20072;-72
2022/12/30 11:31:29;;;;;;;0.30;0.30;;;7.90;90.90;;;;;;5117084;28;20050;-72
2022/12/30 11:33:58;;;;;;;0.50;0.20;;;7.90;90.90;;;;;;5135959;28;20043;-71
2022/12/30 11:36:36;;;;;;;1.85;0.40;;;7.90;90.90;;;;;;5135521;28;20039;-71
2022/12/30 11:39:25;;;;;;;0.30;0.30;;;7.90;90.90;;;;;;5100284;28;20050;-71
2022/12/30 11:41:56;;;;;;;0.40;0.40;;;8.00;90.90;;;;;;5100142;28;20043;-72
2022/12/30 11:44:25;;;;;;;0.95;0.20;;;8.00;90.90;;;;;;5135231;28;20546;-72
2022/12/30 11:47:05;;;;;;;1.27;0.28;;;7.90;90.90;;;;;;5135239;28;20085;-72
2022/12/30 11:49:37;;;;;;;0.70;0.40;;;8.00;90.90;;;;;;5135198;28;20031;-72
2022/12/30 11:52:11;;;;;;;1.77;0.30;;;8.00;90.90;;;;;;5117265;28;20053;-72
2022/12/30 11:54:50;;;;;;;0.20;0.20;;;8.00;90.90;;;;;;5116734;28;20042;-72
2022/12/30 11:57:24;;;;;;;0.30;0.30;;;8.10;90.90;;;;;;5135424;28;20064;-72
2022/12/30 11:59:54;;;;;;;0.57;0.35;;;8.00;90.80;;;;;;5135027;28;20073;-72
2022/12/30 12:02:40;;;;;;;0.22;0.22;;;8.00;90.80;;;;;;5100190;28;20035;-72
2022/12/30 12:05:27;;;;;;;0.13;0.10;;;8.00;90.80;;;;;;5135214;28;20031;-72
2022/12/30 12:08:00;;;;;;;0.20;0.20;;;8.00;91.10;;;;;;5134713;28;20051;-72
2022/12/30 12:10:34;;;;;;;0.90;0.32;;;8.00;90.80;;;;;;5135002;28;20039;-72
2022/12/30 12:13:33;;;;;;;1.02;0.20;;;8.00;90.80;;;;;;5099976;28;20086;-71
2022/12/30 12:16:00;;;;;;;0.40;0.30;;;8.00;90.80;;;;;;5134467;28;20490;-72
2022/12/30 12:18:47;;;;;;;0.43;0.28;;;8.10;90.80;;;;;;5134578;28;20066;-72
2022/12/30 12:21:29;;;;;;;1.30;0.30;;;8.10;90.80;;;;;;5134765;28;20035;-72
2022/12/30 12:24:29;;;;;;;0.20;0.20;;;8.10;90.80;;;;;;5135129;28;20040;-72
2022/12/30 12:27:02;;;;;;;0.20;0.20;;;8.10;90.80;;;;;;5134456;28;20042;-71
2022/12/30 12:29:28;;;;;;;0.85;0.30;;;8.20;90.80;;;;;;5117400;28;20088;-72
2022/12/30 12:32:27;;;;;;;0.60;0.20;;;8.20;90.80;;;;;;5134883;28;20035;-72
2022/12/30 12:35:19;;;;;;;0.98;0.40;;;8.10;90.70;;;;;;5134435;28;20086;-72
2022/12/30 12:38:11;;;;;;;0.93;0.22;;;8.20;90.70;;;;;;5133191;28;20107;-72
2022/12/30 12:40:58;;;;;;;0.20;0.20;;;8.20;90.70;;;;;;5115651;28;20039;-72
2022/12/30 12:43:48;;;;;;;0.22;0.20;;;8.40;90.70;;;;;;5117716;28;20038;-72
2022/12/30 12:46:43;;;;;;;0.65;0.30;;;8.30;90.70;;;;;;5098966;28;20516;-72
2022/12/30 12:49:38;;;;;;;0.20;0.20;;;8.40;90.70;;;;;;5120500;28;20051;-71
2022/12/30 12:52:28;;;;;;;0.80;0.30;;;8.40;90.60;;;;;;5134699;28;20055;-72
2022/12/30 12:55:26;;;;;;;0.13;0.13;;;8.30;90.60;;;;;;5115939;28;20065;-72
2022/12/30 12:58:18;;;;;;;0.20;0.20;;;8.40;90.60;;;;;;5133957;28;20043;-72
2022/12/30 13:01:11;;;;;;;0.30;0.30;;;8.40;90.60;;;;;;5114355;28;20057;-72
2022/12/30 13:04:09;;;;;;;0.28;0.28;;;8.30;90.60;;;;;;5134124;28;20070;-72
2022/12/30 13:06:57;;;;;;;0.20;0.20;;;8.30;90.60;;;;;;5115483;28;20051;-72
2022/12/30 13:09:42;;;;;;;0.20;0.20;;;8.40;90.70;;;;;;5133864;28;20039;-72
2022/12/30 13:12:24;;;;;;;0.38;0.20;;;8.40;90.70;;;;;;5098535;28;20031;-72
2022/12/30 13:14:55;;;;;;;0.77;0.40;;;8.40;90.70;;;;;;5134294;28;20047;-72
2022/12/30 13:17:32;;;;;;;0.20;0.17;;;8.30;90.70;;;;;;5133759;28;20498;-72
2022/12/30 13:20:05;;;;;;;0.65;0.20;;;8.30;90.70;;;;;;5116222;28;20047;-72
2022/12/30 13:22:36;;;;;;;0.30;0.20;;;8.30;90.70;;;;;;5115615;28;20035;-72
2022/12/30 13:25:12;;;;;;;0.85;0.20;;;8.30;90.80;;;;;;5115386;28;20035;-74
2022/12/30 13:27:40;;;;;;;0.30;0.30;;;8.30;90.80;;;;;;5133584;28;20096;-73
2022/12/30 13:30:12;;;;;;;0.28;0.28;;;8.30;90.80;;;;;;5133588;28;20055;-73
2022/12/30 13:33:06;;;;;;;0.70;0.20;;;8.30;90.80;;;;;;5133403;28;20065;-74
2022/12/30 13:35:58;;;;;;;0.30;0.20;;;8.30;90.90;;;;;;5118088;28;20042;-72
2022/12/30 13:38:40;;;;;;;0.73;0.38;;;8.40;90.90;;;;;;5114984;28;20082;-72
2022/12/30 13:41:25;;;;;;;1.42;0.30;;;8.30;90.90;;;;;;5115084;28;20045;-72
2022/12/30 13:43:56;;;;;;;0.10;0.10;;;8.30;91.00;;;;;;5133593;28;20062;-73
2022/12/30 13:46:33;;;;;;;0.20;0.10;;;8.30;91.00;;;;;;5115029;28;20043;-72
2022/12/30 13:49:06;;;;;;;0.40;0.17;;;8.30;91.00;;;;;;5115007;28;20117;-73
2022/12/30 13:51:32;;;;;;;0.47;0.10;;;8.20;91.00;;;;;;5114983;28;20039;-73
2022/12/30 13:54:15;;;;;;;0.22;0.10;;;8.20;91.10;;;;;;5114902;28;20121;-73
2022/12/30 13:56:44;;;;;;;0.22;0.20;;;8.20;91.10;;;;;;5133019;28;20059;-73
2022/12/30 13:59:32;;;;;;;0.30;0.30;;;8.20;91.10;;;;;;5133276;28;20051;-73
2022/12/30 14:02:32;;;;;;;0.70;0.20;;;8.30;91.20;;;;;;5133202;28;20548;-73
2022/12/30 14:04:58;;;;;;;0.20;0.20;;;8.20;91.20;;;;;;5100313;28;20057;-72
2022/12/30 14:07:47;;;;;;;0.30;0.20;;;8.20;91.20;;;;;;5133395;28;20110;-73
2022/12/30 14:10:40;;;;;;;0.43;0.20;;;8.20;91.30;;;;;;5118490;27;20068;-73
2022/12/30 14:13:15;;;;;;;0.22;0.22;;;8.20;91.30;;;;;;5122543;28;20047;-72
2022/12/30 14:15:59;;;;;;;1.42;0.20;;;8.20;91.30;;;;;;5118778;28;20050;-73